createdAt,value
2023-06-10T00:01:56.461Z,8.57
2023-06-10T00:04:23.671Z,6.63
2023-06-10T00:06:50.669Z,5.32
2023-06-10T00:09:17.280Z,6.85
2023-06-10T00:11:44.006Z,7.32
2023-06-10T00:14:10.626Z,12.65
2023-06-10T00:16:37.454Z,6.10
2023-06-10T00:19:04.958Z,5.53
2023-06-10T00:21:38.520Z,7.70
2023-06-10T00:24:13.232Z,6.90
2023-06-10T00:26:41.665Z,4.05
2023-06-10T00:29:08.933Z,12.38
2023-06-10T00:31:36.502Z,9.25
2023-06-10T00:34:03.407Z,6.15
2023-06-10T00:36:30.959Z,4.40
2023-06-10T00:38:58.529Z,6.88
2023-06-10T00:41:25.300Z,10.95
2023-06-10T00:43:51.873Z,6.57
2023-06-10T00:46:19.566Z,8.20
2023-06-10T00:48:47.577Z,10.60
2023-06-10T00:51:14.267Z,5.55
2023-06-10T00:53:42.468Z,8.98
2023-06-10T00:56:09.970Z,13.18
2023-06-10T00:58:37.053Z,5.72
2023-06-10T01:01:05.279Z,6.63
2023-06-10T01:03:33.475Z,7.43
2023-06-10T01:06:25.597Z,10.20
2023-06-10T01:09:02.125Z,11.57
2023-06-10T01:11:48.688Z,9.02
2023-06-10T01:14:18.150Z,8.50
2023-06-10T01:16:46.898Z,4.43
2023-06-10T01:19:18.790Z,5.78
2023-06-10T01:21:49.802Z,5.75
2023-06-10T01:24:19.533Z,8.75
2023-06-10T01:26:51.163Z,9.43
2023-06-10T01:29:28.195Z,8.73
2023-06-10T01:32:15.489Z,9.75
2023-06-10T01:34:44.461Z,10.25
2023-06-10T01:37:15.066Z,5.68
2023-06-10T01:39:43.235Z,10.80
2023-06-10T01:42:12.579Z,4.68
2023-06-10T01:44:40.799Z,7.50
2023-06-10T01:47:07.432Z,9.18
2023-06-10T01:49:34.053Z,9.63
2023-06-10T01:52:00.753Z,7.53
2023-06-10T01:54:27.346Z,11.38
2023-06-10T01:56:53.944Z,5.65
2023-06-10T01:59:20.541Z,3.60
2023-06-10T02:01:47.103Z,4.55
2023-06-10T02:04:13.644Z,8.35
2023-06-10T02:06:40.214Z,4.13
2023-06-10T02:09:07.345Z,8.35
2023-06-10T02:11:33.881Z,7.22
2023-06-10T02:14:00.801Z,7.45
2023-06-10T02:16:27.759Z,8.35
2023-06-10T02:18:54.457Z,9.45
2023-06-10T02:21:21.091Z,7.88
2023-06-10T02:23:47.672Z,5.22
2023-06-10T02:26:14.251Z,13.75
2023-06-10T02:28:44.011Z,6.18
2023-06-10T02:31:10.706Z,8.38
2023-06-10T02:33:41.387Z,17.58
2023-06-10T02:36:08.079Z,5.57
2023-06-10T02:38:34.664Z,3.85
2023-06-10T02:41:01.201Z,9.18
2023-06-10T02:43:27.804Z,13.65
2023-06-10T02:45:54.421Z,14.98
2023-06-10T02:48:21.032Z,4.85
2023-06-10T02:50:47.737Z,6.30
2023-06-10T02:53:14.335Z,6.22
2023-06-10T02:55:42.261Z,8.70
2023-06-10T02:58:08.861Z,7.50
2023-06-10T03:00:35.444Z,9.43
2023-06-10T03:03:04.785Z,10.98
2023-06-10T03:05:31.583Z,7.75
2023-06-10T03:07:58.116Z,5.22
2023-06-10T03:10:24.723Z,8.82
2023-06-10T03:12:51.278Z,9.77
2023-06-10T03:15:17.862Z,5.68
2023-06-10T03:17:44.467Z,12.55
2023-06-10T03:20:11.650Z,5.30
2023-06-10T03:22:39.306Z,9.38
2023-06-10T03:25:07.370Z,10.00
2023-06-10T03:27:34.537Z,7.40
2023-06-10T03:30:01.353Z,4.32
2023-06-10T03:32:27.994Z,11.93
2023-06-10T03:34:58.283Z,5.00
2023-06-10T03:37:25.856Z,10.10
2023-06-10T03:39:52.411Z,10.00
2023-06-10T03:42:18.964Z,7.35
2023-06-10T03:44:45.560Z,5.63
2023-06-10T03:47:13.948Z,8.95
2023-06-10T03:49:41.489Z,14.60
2023-06-10T03:52:08.354Z,5.97
2023-06-10T03:54:35.926Z,4.65
2023-06-10T03:57:02.634Z,7.72
2023-06-10T03:59:29.857Z,9.00
2023-06-10T04:01:56.548Z,12.43
2023-06-10T04:04:24.673Z,5.00
2023-06-10T04:06:51.817Z,7.18
2023-06-10T04:09:18.540Z,10.77
2023-06-10T04:11:45.191Z,13.20
2023-06-10T04:14:11.866Z,8.93
2023-06-10T04:16:39.616Z,9.52
2023-06-10T04:19:06.844Z,15.45
2023-06-10T04:21:34.107Z,11.88
2023-06-10T04:24:00.800Z,11.82
2023-06-10T04:26:28.261Z,7.57
2023-06-10T04:28:54.930Z,9.55
2023-06-10T04:31:21.947Z,12.10
2023-06-10T04:33:48.567Z,12.00
2023-06-10T04:36:15.857Z,7.88
2023-06-10T04:38:42.641Z,11.25
2023-06-10T04:41:09.649Z,12.73
2023-06-10T04:43:36.247Z,14.40
2023-06-10T04:46:03.019Z,6.68
2023-06-10T04:48:30.152Z,10.25
2023-06-10T04:50:57.848Z,14.65
2023-06-10T04:53:24.397Z,3.55
2023-06-10T04:55:51.038Z,12.48
2023-06-10T04:58:17.608Z,6.22
2023-06-10T05:00:44.887Z,10.63
2023-06-10T05:03:12.030Z,4.70
2023-06-10T05:05:38.661Z,6.90
2023-06-10T05:08:07.700Z,10.55
2023-06-10T05:10:35.442Z,8.90
2023-06-10T05:13:02.038Z,8.25
2023-06-10T05:15:28.660Z,9.98
2023-06-10T05:17:58.536Z,17.08
2023-06-10T05:20:26.354Z,11.20
2023-06-10T05:22:53.151Z,13.07
2023-06-10T05:25:19.700Z,5.63
2023-06-10T05:27:46.283Z,7.60
2023-06-10T05:30:13.838Z,5.60
2023-06-10T05:32:40.471Z,7.43
2023-06-10T05:35:07.901Z,9.15
2023-06-10T05:37:37.927Z,8.43
2023-06-10T05:40:05.692Z,7.15
2023-06-10T05:42:32.318Z,11.45
2023-06-10T05:44:58.903Z,7.22
2023-06-10T05:47:25.496Z,10.05
2023-06-10T05:49:52.941Z,10.45
2023-06-10T05:52:20.009Z,7.00
2023-06-10T05:54:46.709Z,9.02
2023-06-10T05:57:14.104Z,7.63
2023-06-10T05:59:40.697Z,12.43
2023-06-10T06:02:07.431Z,4.55
2023-06-10T06:04:35.174Z,7.80
2023-06-10T06:07:01.883Z,9.55
2023-06-10T06:09:28.424Z,8.07
2023-06-10T06:11:55.045Z,4.75
2023-06-10T06:14:21.626Z,12.10
2023-06-10T06:16:48.187Z,12.65
2023-06-10T06:19:15.065Z,8.48
2023-06-10T06:21:41.935Z,6.75
2023-06-10T06:24:08.813Z,7.63
2023-06-10T06:26:35.680Z,5.13
2023-06-10T06:29:02.270Z,7.75
2023-06-10T06:31:28.865Z,8.20
2023-06-10T06:33:55.502Z,9.73
2023-06-10T06:36:22.082Z,5.40
2023-06-10T06:38:48.629Z,8.35
2023-06-10T06:41:15.202Z,10.40
2023-06-10T06:43:43.394Z,8.43
2023-06-10T06:46:10.391Z,3.08
2023-06-10T06:48:37.052Z,7.30
2023-06-10T06:51:03.904Z,7.10
2023-06-10T06:53:32.258Z,6.45
2023-06-10T06:55:59.080Z,5.75
2023-06-10T06:58:25.799Z,6.43
2023-06-10T07:00:52.393Z,16.10
2023-06-10T07:03:18.998Z,14.77
2023-06-10T07:05:45.616Z,7.60
2023-06-10T07:08:13.218Z,8.85
2023-06-10T07:10:39.806Z,5.60
2023-06-10T07:13:06.337Z,4.07
2023-06-10T07:15:34.626Z,9.18
2023-06-10T07:18:01.302Z,4.28
2023-06-10T07:20:27.905Z,6.35
2023-06-10T07:22:54.856Z,5.30
2023-06-10T07:25:21.488Z,9.73
2023-06-10T07:27:48.066Z,7.05
2023-06-10T07:30:14.822Z,7.22
2023-06-10T07:32:41.414Z,4.15
2023-06-10T07:35:11.486Z,6.25
2023-06-10T07:37:38.562Z,8.63
2023-06-10T07:40:06.129Z,6.13
2023-06-10T07:42:38.876Z,5.50
2023-06-10T07:45:06.100Z,8.07
2023-06-10T07:47:35.666Z,5.97
2023-06-10T07:50:02.809Z,6.25
2023-06-10T07:52:29.908Z,12.02
2023-06-10T07:54:56.513Z,7.72
2023-06-10T07:57:23.238Z,4.78
2023-06-10T07:59:50.320Z,7.95
2023-06-10T08:02:17.021Z,3.80
2023-06-10T08:04:43.722Z,11.05
2023-06-10T08:07:10.329Z,4.47
2023-06-10T08:09:37.032Z,8.32
2023-06-10T08:12:04.041Z,3.67
2023-06-10T08:14:30.976Z,4.70
2023-06-10T08:16:57.741Z,5.13
2023-06-10T08:19:24.404Z,7.95
2023-06-10T08:21:51.070Z,5.30
2023-06-10T08:24:19.984Z,3.55
2023-06-10T08:26:46.646Z,2.42
2023-06-10T08:29:14.576Z,4.80
2023-06-10T08:31:45.355Z,9.95
2023-06-10T08:34:12.930Z,4.72
2023-06-10T08:36:39.612Z,2.55
2023-06-10T08:39:06.354Z,4.22
2023-06-10T08:41:38.043Z,8.05
2023-06-10T08:44:13.811Z,5.53
2023-06-10T08:46:45.917Z,7.00
2023-06-10T08:49:19.572Z,3.50
2023-06-10T08:51:46.431Z,5.82
2023-06-10T08:54:20.901Z,6.60
2023-06-10T08:56:51.083Z,5.25
2023-06-10T08:59:18.316Z,6.03
2023-06-10T09:01:46.478Z,4.80
2023-06-10T09:04:13.486Z,3.80
2023-06-10T09:06:41.486Z,2.97
2023-06-10T09:09:08.372Z,2.25
2023-06-10T09:11:35.070Z,3.15
2023-06-10T09:14:02.187Z,4.35
2023-06-10T09:16:29.524Z,7.28
2023-06-10T09:18:56.966Z,6.18
2023-06-10T09:21:24.562Z,2.05
2023-06-10T09:23:51.803Z,2.55
2023-06-10T09:26:19.393Z,3.15
2023-06-10T09:28:49.114Z,2.63
2023-06-10T09:31:19.454Z,5.88
2023-06-10T09:33:46.343Z,4.70
2023-06-10T09:36:22.240Z,3.00
2023-06-10T09:38:51.824Z,2.45
2023-06-10T09:41:18.509Z,4.72
2023-06-10T09:43:47.671Z,4.88
2023-06-10T09:46:21.175Z,2.33
2023-06-10T09:48:49.051Z,2.83
2023-06-10T09:51:18.308Z,2.67
2023-06-10T09:53:50.388Z,3.05
2023-06-10T09:56:17.220Z,5.47
2023-06-10T09:58:44.666Z,1.77
2023-06-10T10:01:13.298Z,4.38
2023-06-10T10:03:53.186Z,6.07
2023-06-10T10:06:21.223Z,5.32
2023-06-10T10:08:50.355Z,1.00
2023-06-10T10:11:28.114Z,3.40
2023-06-10T10:13:55.272Z,4.13
2023-06-10T10:16:30.484Z,2.50
2023-06-10T10:19:02.730Z,4.25
2023-06-10T10:21:36.828Z,3.30
2023-06-10T10:24:13.784Z,2.83
2023-06-10T10:26:41.384Z,3.38
2023-06-10T10:29:26.186Z,1.70
2023-06-10T10:31:56.079Z,1.88
2023-06-10T10:34:36.300Z,1.67
2023-06-10T10:37:03.233Z,5.03
2023-06-10T10:39:31.270Z,2.72
2023-06-10T10:41:58.724Z,1.80
2023-06-10T10:44:26.429Z,2.28
2023-06-10T10:46:55.211Z,4.57
2023-06-10T10:49:23.878Z,2.65
2023-06-10T10:52:13.051Z,3.70
2023-06-10T10:54:45.127Z,2.15
2023-06-10T10:57:20.251Z,1.65
2023-06-10T10:59:49.742Z,4.55
2023-06-10T11:02:44.469Z,1.55
2023-06-10T11:05:15.345Z,1.35
2023-06-10T11:07:53.405Z,4.18
2023-06-10T11:10:30.576Z,3.33
2023-06-10T11:12:57.920Z,8.30
2023-06-10T11:15:26.900Z,3.78
2023-06-10T11:18:12.806Z,1.95
2023-06-10T11:20:51.592Z,2.33
2023-06-10T11:23:30.299Z,1.63
2023-06-10T11:26:38.329Z,8.48
2023-06-10T11:29:06.939Z,3.38
2023-06-10T11:31:40.919Z,1.20
2023-06-10T11:34:09.256Z,0.60
2023-06-10T11:36:41.444Z,7.78
2023-06-10T11:39:08.328Z,1.35
2023-06-10T11:41:36.294Z,0.77
2023-06-10T11:44:09.589Z,1.38
2023-06-10T11:46:37.061Z,2.13
2023-06-10T11:49:05.200Z,1.05
2023-06-10T11:51:45.228Z,0.93
2023-06-10T11:54:11.899Z,1.48
2023-06-10T11:56:38.486Z,3.80
2023-06-10T11:59:08.626Z,3.97
2023-06-10T12:01:40.077Z,0.60
2023-06-10T12:04:14.032Z,1.25
2023-06-10T12:06:49.049Z,0.60
2023-06-10T12:09:26.802Z,0.80
2023-06-10T12:12:03.960Z,0.60
2023-06-10T12:14:51.649Z,0.70
2023-06-10T12:17:18.250Z,1.17
2023-06-10T12:19:44.881Z,0.82
2023-06-10T12:22:11.560Z,1.55
2023-06-10T12:25:02.608Z,0.70
2023-06-10T12:27:30.920Z,1.30
2023-06-10T12:30:06.158Z,1.17
2023-06-10T12:32:46.662Z,1.00
2023-06-10T12:35:27.635Z,0.80
2023-06-10T12:38:08.055Z,0.60
2023-06-10T12:40:37.979Z,0.45
2023-06-10T12:43:05.085Z,0.80
2023-06-10T12:45:34.147Z,1.35
2023-06-10T12:48:11.413Z,1.50
2023-06-10T12:50:43.119Z,1.65
2023-06-10T12:53:12.304Z,3.65
2023-06-10T12:55:39.804Z,1.42
2023-06-10T12:58:06.825Z,0.93
2023-06-10T13:00:35.826Z,2.28
2023-06-10T13:03:03.527Z,2.38
2023-06-10T13:05:30.625Z,1.42
2023-06-10T13:07:57.462Z,2.50
2023-06-10T13:10:25.958Z,0.77
2023-06-10T13:12:53.689Z,2.40
2023-06-10T13:15:20.463Z,1.35
2023-06-10T13:17:50.996Z,2.33
2023-06-10T13:20:18.309Z,2.30
2023-06-10T13:22:45.009Z,2.22
2023-06-10T13:25:12.652Z,1.25
2023-06-10T13:27:40.718Z,2.40
2023-06-10T13:30:08.978Z,0.85
2023-06-10T13:32:37.007Z,1.45
2023-06-10T13:35:05.336Z,2.78
2023-06-10T13:37:32.316Z,0.50
2023-06-10T13:39:58.940Z,6.38
2023-06-10T13:42:27.564Z,0.80
2023-06-10T13:44:54.224Z,2.67
2023-06-10T13:47:22.115Z,1.33
2023-06-10T13:49:48.764Z,3.10
2023-06-10T13:52:15.393Z,2.33
2023-06-10T13:54:42.150Z,2.05
2023-06-10T13:57:11.538Z,1.83
2023-06-10T13:59:38.406Z,2.85
2023-06-10T14:02:05.691Z,2.20
2023-06-10T14:04:32.323Z,1.10
2023-06-10T14:06:58.957Z,0.73
2023-06-10T14:09:25.716Z,2.65
2023-06-10T14:11:53.041Z,0.40
2023-06-10T14:14:20.646Z,1.58
2023-06-10T14:16:47.432Z,1.73
2023-06-10T14:19:14.117Z,1.85
2023-06-10T14:21:40.924Z,0.73
2023-06-10T14:24:07.946Z,0.60
2023-06-10T14:26:34.555Z,0.68
2023-06-10T14:29:01.171Z,4.90
2023-06-10T14:31:27.823Z,0.55
2023-06-10T14:33:54.393Z,0.77
2023-06-10T14:36:21.078Z,1.10
2023-06-10T14:38:47.685Z,0.82
2023-06-10T14:41:14.688Z,1.10
2023-06-10T14:43:41.330Z,1.80
2023-06-10T14:46:08.015Z,5.35
2023-06-10T14:48:34.704Z,0.85
2023-06-10T14:51:01.378Z,0.40
2023-06-10T14:53:28.744Z,1.00
2023-06-10T14:55:58.622Z,1.10
2023-06-10T14:58:25.450Z,1.40
2023-06-10T15:00:52.549Z,1.17
2023-06-10T15:03:19.599Z,1.38
2023-06-10T15:05:46.850Z,0.73
2023-06-10T15:08:13.572Z,0.40
2023-06-10T15:10:40.820Z,0.60
2023-06-10T15:13:07.418Z,1.85
2023-06-10T15:15:34.413Z,2.42
2023-06-10T15:18:01.421Z,1.55
2023-06-10T15:20:28.299Z,0.57
2023-06-10T15:22:55.144Z,1.55
2023-06-10T15:25:30.837Z,1.58
2023-06-10T15:27:58.451Z,2.78
2023-06-10T15:30:25.143Z,0.40
2023-06-10T15:32:52.160Z,1.05
2023-06-10T15:35:19.787Z,0.98
2023-06-10T15:37:47.789Z,0.85
2023-06-10T15:40:15.155Z,2.15
2023-06-10T15:42:42.385Z,1.80
2023-06-10T15:45:09.568Z,0.88
2023-06-10T15:47:36.450Z,1.15
2023-06-10T15:50:03.593Z,0.40
2023-06-10T15:52:32.931Z,0.35
2023-06-10T15:54:59.639Z,0.77
2023-06-10T15:57:27.341Z,0.43
2023-06-10T15:59:54.314Z,0.77
2023-06-10T16:02:21.242Z,2.25
2023-06-10T16:04:49.170Z,0.82
2023-06-10T16:07:16.227Z,0.85
2023-06-10T16:09:42.993Z,0.75
2023-06-10T16:12:09.835Z,1.33
2023-06-10T16:14:36.442Z,2.72
2023-06-10T16:17:03.750Z,0.63
2023-06-10T16:19:31.068Z,2.67
2023-06-10T16:21:57.619Z,2.58
2023-06-10T16:24:24.965Z,1.10
2023-06-10T16:26:54.939Z,1.05
2023-06-10T16:29:21.823Z,1.70
2023-06-10T16:31:50.777Z,0.55
2023-06-10T16:34:17.960Z,0.35
2023-06-10T16:36:44.676Z,3.22
2023-06-10T16:39:11.516Z,1.90
2023-06-10T16:41:40.256Z,2.38
2023-06-10T16:44:06.863Z,1.05
2023-06-10T16:46:33.490Z,0.40
2023-06-10T16:49:00.182Z,3.03
2023-06-10T16:51:27.806Z,2.63
2023-06-10T16:53:54.548Z,0.73
2023-06-10T16:56:22.811Z,0.70
2023-06-10T16:58:49.522Z,0.70
2023-06-10T17:01:17.182Z,2.85
2023-06-10T17:03:44.277Z,0.70
2023-06-10T17:06:12.190Z,1.02
2023-06-10T17:08:38.789Z,0.70
2023-06-10T17:11:05.835Z,0.85
2023-06-10T17:13:32.682Z,0.82
2023-06-10T17:16:02.016Z,1.20
2023-06-10T17:18:28.929Z,1.15
2023-06-10T17:20:55.763Z,1.52
2023-06-10T17:23:23.738Z,0.80
2023-06-10T17:25:50.653Z,0.98
2023-06-10T17:28:17.582Z,0.68
2023-06-10T17:30:46.504Z,0.80
2023-06-10T17:33:13.357Z,0.80
2023-06-10T17:35:40.341Z,0.70
2023-06-10T17:38:06.991Z,2.25
2023-06-10T17:40:33.863Z,0.93
2023-06-10T17:43:00.495Z,1.30
2023-06-10T17:45:27.112Z,0.70
2023-06-10T17:47:54.432Z,0.88
2023-06-10T17:50:21.305Z,1.10
2023-06-10T17:52:48.117Z,0.70
2023-06-10T17:55:14.832Z,0.60
2023-06-10T17:57:41.741Z,1.15
2023-06-10T18:00:09.001Z,1.98
2023-06-10T18:02:36.577Z,0.40
2023-06-10T18:05:03.578Z,0.80
2023-06-10T18:07:33.037Z,2.08
2023-06-10T18:09:59.910Z,0.60
2023-06-10T18:12:35.031Z,1.00
2023-06-10T18:15:03.509Z,1.08
2023-06-10T18:17:31.895Z,5.18
2023-06-10T18:20:01.880Z,1.30
2023-06-10T18:22:31.193Z,1.00
2023-06-10T18:25:06.123Z,3.10
2023-06-10T18:27:34.390Z,2.97
2023-06-10T18:30:02.519Z,1.25
2023-06-10T18:32:29.477Z,1.38
2023-06-10T18:34:56.577Z,5.78
2023-06-10T18:37:23.629Z,1.10
2023-06-10T18:39:50.466Z,3.78
2023-06-10T18:42:17.549Z,2.42
2023-06-10T18:44:44.387Z,3.53
2023-06-10T18:47:11.170Z,2.00
2023-06-10T18:49:38.939Z,2.05
2023-06-10T18:52:07.455Z,1.27
2023-06-10T18:54:36.028Z,4.10
2023-06-10T18:57:03.022Z,1.77
2023-06-10T18:59:29.835Z,3.05
2023-06-10T19:01:56.708Z,2.95
2023-06-10T19:04:23.445Z,5.80
2023-06-10T19:06:50.340Z,1.08
2023-06-10T19:09:17.346Z,2.65
2023-06-10T19:11:44.033Z,4.90
2023-06-10T19:14:11.668Z,1.55
2023-06-10T19:16:38.467Z,2.55
2023-06-10T19:19:05.129Z,0.98
2023-06-10T19:21:31.872Z,2.10
2023-06-10T19:23:59.702Z,2.33
2023-06-10T19:26:26.359Z,1.20
2023-06-10T19:28:53.485Z,5.10
2023-06-10T19:31:20.538Z,2.58
2023-06-10T19:33:47.289Z,2.97
2023-06-10T19:36:14.068Z,2.22
2023-06-10T19:38:41.052Z,6.13
2023-06-10T19:41:07.782Z,2.13
2023-06-10T19:43:34.417Z,2.03
2023-06-10T19:46:01.539Z,2.22
2023-06-10T19:48:28.268Z,4.43
2023-06-10T19:50:55.010Z,2.58
2023-06-10T19:53:21.584Z,3.13
2023-06-10T19:55:48.201Z,2.30
2023-06-10T19:58:14.937Z,1.65
2023-06-10T20:00:41.522Z,1.85
2023-06-10T20:03:08.295Z,2.75
2023-06-10T20:05:35.193Z,3.25
2023-06-10T20:08:02.277Z,2.05
2023-06-10T20:10:29.174Z,4.97
2023-06-10T20:12:56.324Z,5.82
2023-06-10T20:15:23.204Z,6.40
2023-06-10T20:17:53.052Z,5.43
2023-06-10T20:20:19.994Z,3.42
2023-06-10T20:22:47.440Z,3.03
2023-06-10T20:25:17.668Z,4.93
2023-06-10T20:27:44.442Z,25.05
2023-06-10T20:30:11.499Z,3.45
2023-06-10T20:32:38.415Z,4.07
2023-06-10T20:35:06.178Z,4.28
2023-06-10T20:37:33.075Z,1.65
2023-06-10T20:39:59.899Z,6.90
2023-06-10T20:42:27.415Z,3.38
2023-06-10T20:44:55.819Z,2.83
2023-06-10T20:47:23.024Z,2.38
2023-06-10T20:49:49.737Z,2.95
2023-06-10T20:52:19.791Z,4.20
2023-06-10T20:54:46.819Z,7.63
2023-06-10T20:57:13.877Z,4.78
2023-06-10T20:59:41.736Z,2.28
2023-06-10T21:02:12.560Z,2.63
2023-06-10T21:04:39.391Z,6.07
2023-06-10T21:07:07.457Z,4.05
2023-06-10T21:09:35.410Z,3.15
2023-06-10T21:12:02.138Z,4.93
2023-06-10T21:14:29.162Z,4.35
2023-06-10T21:16:56.004Z,3.00
2023-06-10T21:19:23.301Z,3.33
2023-06-10T21:21:50.803Z,3.65
2023-06-10T21:24:17.766Z,2.90
2023-06-10T21:26:45.244Z,3.28
2023-06-10T21:29:12.670Z,5.95
2023-06-10T21:31:39.745Z,2.58
2023-06-10T21:34:14.030Z,3.83
2023-06-10T21:36:48.245Z,6.05
2023-06-10T21:39:15.936Z,4.72
2023-06-10T21:41:42.940Z,5.18
2023-06-10T21:44:10.252Z,3.20
2023-06-10T21:46:38.808Z,2.95
2023-06-10T21:49:05.544Z,2.95
2023-06-10T21:51:32.247Z,3.58
2023-06-10T21:53:59.133Z,5.75
2023-06-10T21:56:27.671Z,5.30
2023-06-10T21:58:54.461Z,6.38
2023-06-10T22:01:21.496Z,2.10
2023-06-10T22:03:48.270Z,4.20
2023-06-10T22:06:15.699Z,3.25
2023-06-10T22:08:42.359Z,7.13
2023-06-10T22:11:10.406Z,3.33
2023-06-10T22:13:37.017Z,3.58
2023-06-10T22:16:03.777Z,3.55
2023-06-10T22:18:30.794Z,3.72
2023-06-10T22:20:57.422Z,3.58
2023-06-10T22:23:24.048Z,6.43
2023-06-10T22:25:50.937Z,6.10
2023-06-10T22:28:17.551Z,4.57
2023-06-10T22:30:44.543Z,5.10
2023-06-10T22:33:11.901Z,5.38
2023-06-10T22:35:38.652Z,2.83
2023-06-10T22:38:05.495Z,5.05
2023-06-10T22:40:32.095Z,3.13
2023-06-10T22:43:00.417Z,3.20
2023-06-10T22:45:27.172Z,2.00
2023-06-10T22:47:54.820Z,3.47
2023-06-10T22:50:21.668Z,2.17
2023-06-10T22:52:51.338Z,3.55
2023-06-10T22:55:18.104Z,2.20
2023-06-10T22:57:46.298Z,7.47
2023-06-10T23:00:16.750Z,2.85
2023-06-10T23:02:43.653Z,4.07
2023-06-10T23:05:12.263Z,3.72
2023-06-10T23:07:39.373Z,1.90
2023-06-10T23:10:07.090Z,3.10
2023-06-10T23:12:33.797Z,5.93
2023-06-10T23:15:00.533Z,3.63
2023-06-10T23:17:29.293Z,4.15
2023-06-10T23:19:58.055Z,2.90
2023-06-10T23:22:32.060Z,4.68
2023-06-10T23:27:29.391Z,1.70
2023-06-10T23:29:59.903Z,4.63
2023-06-10T23:32:27.645Z,2.85
2023-06-10T23:34:54.602Z,2.05
2023-06-10T23:37:21.689Z,2.42
2023-06-10T23:39:49.509Z,1.85
2023-06-10T23:42:17.291Z,4.97
2023-06-10T23:44:44.538Z,3.08
2023-06-10T23:47:11.136Z,5.85
2023-06-10T23:49:37.809Z,2.13
2023-06-10T23:52:04.711Z,4.45
2023-06-10T23:54:31.569Z,4.35
2023-06-10T23:56:59.474Z,13.00
2023-06-10T23:59:26.512Z,3.15
